Time;durP1;ratioP1;P1;durP2;ratioP2;P2;SDS_P1;SDS_P2;PMS_P1;PMS_P2;Temp;Humidity;BMP_temperature;BMP_pressure;BME280_temperature;BME280_humidity;BME280_pressure;Samples;Min_cycle;Max_cycle;Signal;HPM_P1;HPM_P2
2022/12/23 00:02:07;;;;;;;;;0.50;0.00;;;;;;;;5043985;28;61833;-76
2022/12/23 00:04:32;;;;;;;;;0.00;0.00;;;;;;;;5044713;28;61811;-76
2022/12/23 00:06:58;;;;;;;;;1.00;0.00;;;;;;;;5044673;28;61982;-76
2022/12/23 00:09:23;;;;;;;;;0.00;0.00;;;;;;;;5043319;28;62109;-76
2022/12/23 00:17:16;;;;;;;;;0.00;0.00;;;;;;;;5044641;28;61817;-76
2022/12/23 00:19:41;;;;;;;;;0.00;0.00;;;;;;;;5044435;28;61903;-76
2022/12/23 00:22:06;;;;;;;;;0.00;0.00;;;;;;;;5041900;28;63193;-76
2022/12/23 00:24:32;;;;;;;;;1.00;1.00;;;;;;;;5044309;28;61906;-76
2022/12/23 00:26:57;;;;;;;;;0.67;0.00;;;;;;;;5044416;28;62125;-76
2022/12/23 00:29:22;;;;;;;;;0.00;0.00;;;;;;;;5044442;28;61803;-76
2022/12/23 00:31:47;;;;;;;;;0.00;0.00;;;;;;;;5042402;28;63758;-76
2022/12/23 00:34:13;;;;;;;;;0.00;0.00;;;;;;;;5043824;28;61999;-76
2022/12/23 00:36:39;;;;;;;;;0.00;0.00;;;;;;;;5044211;28;62045;-76
2022/12/23 00:44:39;;;;;;;;;0.00;0.00;;;;;;;;5001633;28;61732;-76
2022/12/23 00:47:04;;;;;;;;;0.00;0.00;;;;;;;;5001689;28;61936;-76
2022/12/23 00:49:42;;;;;;;;;0.25;0.00;;;;;;;;5001485;28;61815;-76
2022/12/23 00:52:11;;;;;;;;;0.00;0.00;;;;;;;;5001146;28;62157;-76
2022/12/23 00:54:37;;;;;;;;;0.00;0.00;;;;;;;;5001410;28;61903;-76
2022/12/23 00:57:02;;;;;;;;;0.00;0.00;;;;;;;;5001698;28;61799;-76
2022/12/23 00:59:28;;;;;;;;;0.00;0.00;;;;;;;;5001015;28;61781;-76
2022/12/23 01:07:22;;;;;;;;;0.00;0.00;;;;;;;;5001379;28;61828;-75
2022/12/23 01:09:47;;;;;;;;;1.00;0.00;;;;;;;;5013363;28;61998;-76
2022/12/23 01:12:12;;;;;;;;;0.00;0.00;;;;;;;;5000624;28;61978;-76
2022/12/23 01:14:38;;;;;;;;;0.50;0.00;;;;;;;;5001105;28;61933;-76
2022/12/23 01:17:04;;;;;;;;;0.00;0.00;;;;;;;;5001605;28;61763;-76
2022/12/23 01:19:30;;;;;;;;;2.00;0.00;;;;;;;;5034857;28;62089;-76
2022/12/23 01:21:55;;;;;;;;;0.00;0.00;;;;;;;;5043025;28;63112;-76
2022/12/23 01:24:20;;;;;;;;;0.00;0.00;;;;;;;;5043147;28;61647;-76
2022/12/23 01:26:46;;;;;;;;;0.50;0.00;;;;;;;;5043544;28;61894;-76
2022/12/23 01:29:11;;;;;;;;;0.00;0.00;;;;;;;;5042343;28;62050;-76
2022/12/23 01:31:37;;;;;;;;;0.25;0.25;;;;;;;;5042552;28;62635;-76
2022/12/23 01:34:02;;;;;;;;;0.00;0.00;;;;;;;;5042967;28;61698;-76
2022/12/23 01:36:27;;;;;;;;;0.00;0.00;;;;;;;;5043337;28;61590;-76
2022/12/23 01:38:54;;;;;;;;;0.00;0.00;;;;;;;;5043615;28;61854;-77
2022/12/23 01:44:25;;;;;;;;;0.00;0.00;;;;;;;;5043051;28;62102;-76
2022/12/23 01:46:50;;;;;;;;;3.50;0.00;;;;;;;;5042795;28;61793;-76
2022/12/23 01:49:15;;;;;;;;;0.00;0.00;;;;;;;;5042700;28;61748;-76
2022/12/23 01:51:41;;;;;;;;;0.00;0.00;;;;;;;;5042347;28;61954;-76
2022/12/23 01:54:07;;;;;;;;;0.00;0.00;;;;;;;;5042883;28;61787;-76
2022/12/23 01:56:35;;;;;;;;;0.00;0.00;;;;;;;;5043015;28;61782;-76
2022/12/23 02:04:49;;;;;;;;;0.00;0.00;;;;;;;;5042744;28;61703;-76
2022/12/23 02:09:59;;;;;;;;;1.00;0.00;;;;;;;;5042004;28;61862;-76
2022/12/23 02:12:44;;;;;;;;;0.00;0.00;;;;;;;;5041540;28;62084;-76
2022/12/23 02:17:57;;;;;;;;;0.00;0.00;;;;;;;;5042617;28;61805;-76
2022/12/23 02:20:22;;;;;;;;;0.00;0.00;;;;;;;;5042490;28;62604;-76
2022/12/23 02:22:59;;;;;;;;;0.00;0.00;;;;;;;;5040404;28;64716;-76
2022/12/23 02:25:25;;;;;;;;;0.00;0.00;;;;;;;;5042377;28;61741;-76
2022/12/23 02:27:53;;;;;;;;;2.00;0.00;;;;;;;;5042875;28;61993;-76
2022/12/23 02:30:18;;;;;;;;;0.00;0.00;;;;;;;;5041178;28;62279;-76
2022/12/23 02:33:10;;;;;;;;;1.00;0.00;;;;;;;;5041371;28;61752;-76
2022/12/23 02:35:53;;;;;;;;;0.00;0.00;;;;;;;;5039664;28;61999;-76
2022/12/23 02:38:28;;;;;;;;;0.00;0.00;;;;;;;;5039894;28;61975;-76
2022/12/23 02:40:56;;;;;;;;;0.00;0.00;;;;;;;;5040106;28;61954;-76
2022/12/23 02:43:28;;;;;;;;;1.50;0.00;;;;;;;;5039325;28;61873;-76
2022/12/23 02:45:57;;;;;;;;;0.00;0.00;;;;;;;;5022495;28;62041;-76
2022/12/23 02:48:44;;;;;;;;;0.00;0.00;;;;;;;;5039761;28;62089;-76
2022/12/23 02:51:12;;;;;;;;;0.75;0.00;;;;;;;;5039993;28;61840;-76
2022/12/23 02:53:41;;;;;;;;;1.75;0.00;;;;;;;;5038823;28;63043;-76
2022/12/23 02:56:08;;;;;;;;;2.00;1.00;;;;;;;;5039382;28;62023;-75
2022/12/23 02:58:45;;;;;;;;;0.00;0.00;;;;;;;;5039534;28;61884;-76
2022/12/23 03:01:12;;;;;;;;;0.00;0.00;;;;;;;;5039569;28;62044;-76
2022/12/23 03:03:38;;;;;;;;;2.75;0.00;;;;;;;;5022111;28;64100;-75
2022/12/23 03:06:15;;;;;;;;;1.50;0.50;;;;;;;;5039434;28;61972;-76
2022/12/23 03:08:42;;;;;;;;;0.00;0.00;;;;;;;;5022527;28;62018;-76
2022/12/23 03:11:12;;;;;;;;;0.00;0.00;;;;;;;;5022793;28;62087;-76
2022/12/23 03:13:40;;;;;;;;;0.25;0.25;;;;;;;;5021108;28;62739;-76
2022/12/23 03:16:24;;;;;;;;;0.00;0.00;;;;;;;;5021573;28;61778;-76
2022/12/23 03:19:07;;;;;;;;;1.00;0.00;;;;;;;;5021454;28;61765;-76
2022/12/23 03:21:37;;;;;;;;;0.00;0.00;;;;;;;;5020729;28;61743;-76
2022/12/23 03:24:07;;;;;;;;;1.00;1.00;;;;;;;;5024734;28;62027;-76
2022/12/23 03:26:45;;;;;;;;;0.00;0.00;;;;;;;;5025305;28;61795;-76
2022/12/23 03:29:14;;;;;;;;;0.00;0.00;;;;;;;;5025284;28;61961;-76
2022/12/23 03:31:40;;;;;;;;;0.00;0.00;;;;;;;;5023571;28;62116;-76
2022/12/23 03:34:09;;;;;;;;;0.00;0.00;;;;;;;;5023171;28;63657;-76
2022/12/23 03:36:37;;;;;;;;;1.00;0.00;;;;;;;;5025403;28;61945;-76
2022/12/23 03:39:04;;;;;;;;;0.00;0.00;;;;;;;;5025257;28;61937;-76
2022/12/23 03:41:32;;;;;;;;;0.00;0.00;;;;;;;;5025306;28;61877;-76
2022/12/23 03:44:01;;;;;;;;;0.00;0.00;;;;;;;;5024114;28;61723;-76
2022/12/23 03:46:31;;;;;;;;;0.00;0.00;;;;;;;;5024773;28;61926;-76
2022/12/23 03:49:02;;;;;;;;;1.00;0.00;;;;;;;;5024741;28;61715;-75
2022/12/23 03:51:31;;;;;;;;;0.25;0.25;;;;;;;;5025322;28;61841;-76
2022/12/23 03:54:00;;;;;;;;;2.25;0.00;;;;;;;;5023933;28;61683;-76
2022/12/23 03:56:35;;;;;;;;;0.00;0.00;;;;;;;;5033118;28;61985;-76
2022/12/23 03:59:04;;;;;;;;;0.75;0.00;;;;;;;;5044714;28;61732;-76
2022/12/23 04:01:29;;;;;;;;;0.00;0.00;;;;;;;;5044718;28;61762;-76
2022/12/23 04:03:54;;;;;;;;;1.00;1.00;;;;;;;;5044061;28;61895;-76
2022/12/23 04:06:21;;;;;;;;;0.00;0.00;;;;;;;;5044698;28;61742;-76
2022/12/23 04:08:47;;;;;;;;;0.00;0.00;;;;;;;;5044392;28;61697;-76
2022/12/23 04:11:13;;;;;;;;;1.50;0.75;;;;;;;;5044700;28;61770;-76
2022/12/23 04:13:38;;;;;;;;;0.00;0.00;;;;;;;;5043812;28;62760;-76
2022/12/23 04:16:04;;;;;;;;;0.00;0.00;;;;;;;;5044232;28;61762;-76
2022/12/23 04:18:29;;;;;;;;;0.00;0.00;;;;;;;;5043241;28;61796;-76
2022/12/23 04:20:55;;;;;;;;;0.50;0.00;;;;;;;;5044248;28;62139;-76
2022/12/23 04:23:20;;;;;;;;;1.25;1.00;;;;;;;;5042370;28;63578;-76
2022/12/23 04:25:45;;;;;;;;;2.75;0.00;;;;;;;;5044296;28;61675;-76
2022/12/23 04:28:10;;;;;;;;;0.00;0.00;;;;;;;;5044233;28;61913;-76
2022/12/23 04:30:36;;;;;;;;;1.50;0.00;;;;;;;;5044504;28;61774;-76
2022/12/23 04:33:05;;;;;;;;;0.75;0.75;;;;;;;;5041510;28;63600;-76
2022/12/23 04:35:35;;;;;;;;;0.00;0.00;;;;;;;;5044062;28;61690;-76
2022/12/23 04:38:00;;;;;;;;;0.00;0.00;;;;;;;;5044142;28;61781;-76
2022/12/23 04:40:25;;;;;;;;;0.75;0.25;;;;;;;;5044521;28;61850;-76
2022/12/23 04:42:51;;;;;;;;;0.00;0.00;;;;;;;;5041849;28;63714;-76
2022/12/23 04:45:16;;;;;;;;;2.25;0.50;;;;;;;;5044136;28;61991;-76
2022/12/23 04:47:41;;;;;;;;;1.00;0.00;;;;;;;;5044023;28;61844;-76
2022/12/23 04:50:07;;;;;;;;;0.00;0.00;;;;;;;;5043886;28;62088;-76
2022/12/23 04:52:32;;;;;;;;;0.00;0.00;;;;;;;;5043573;28;62882;-76
2022/12/23 04:54:57;;;;;;;;;1.50;0.00;;;;;;;;5043579;28;61734;-76
2022/12/23 04:57:22;;;;;;;;;1.00;0.00;;;;;;;;5043943;28;61825;-76
2022/12/23 04:59:48;;;;;;;;;0.25;0.00;;;;;;;;5043937;28;61967;-76
2022/12/23 05:02:13;;;;;;;;;1.00;1.00;;;;;;;;5043129;28;62634;-76
2022/12/23 05:04:38;;;;;;;;;3.00;1.00;;;;;;;;5043909;28;61912;-76
2022/12/23 05:07:04;;;;;;;;;0.00;0.00;;;;;;;;5043703;28;61674;-76
2022/12/23 05:09:29;;;;;;;;;2.25;0.25;;;;;;;;5043642;28;61721;-76
2022/12/23 05:11:54;;;;;;;;;1.75;0.75;;;;;;;;5042804;28;62302;-76
2022/12/23 05:14:19;;;;;;;;;0.00;0.00;;;;;;;;5043390;28;61906;-76
2022/12/23 05:16:45;;;;;;;;;0.25;0.25;;;;;;;;5043509;28;62245;-76
2022/12/23 05:19:10;;;;;;;;;1.75;0.75;;;;;;;;5042433;28;62331;-76
2022/12/23 05:21:35;;;;;;;;;0.00;0.00;;;;;;;;5041402;28;63741;-76
2022/12/23 05:24:00;;;;;;;;;2.50;0.00;;;;;;;;5043285;28;61817;-76
2022/12/23 05:26:26;;;;;;;;;1.00;1.00;;;;;;;;5043370;28;61877;-75
2022/12/23 05:28:51;;;;;;;;;0.25;0.00;;;;;;;;5043815;28;61774;-76
2022/12/23 05:31:16;;;;;;;;;1.00;0.00;;;;;;;;5041176;28;63731;-76
2022/12/23 05:33:42;;;;;;;;;2.00;0.00;;;;;;;;5043206;28;61710;-76
2022/12/23 05:36:08;;;;;;;;;1.75;0.00;;;;;;;;5043308;28;61875;-76
2022/12/23 05:38:33;;;;;;;;;0.00;0.00;;;;;;;;5043580;28;61980;-76
2022/12/23 05:40:58;;;;;;;;;3.00;0.00;;;;;;;;5042176;28;62818;-76
2022/12/23 05:43:24;;;;;;;;;0.75;0.00;;;;;;;;5043184;28;62035;-76
2022/12/23 05:45:49;;;;;;;;;1.00;0.00;;;;;;;;5043001;28;62215;-76
2022/12/23 05:48:14;;;;;;;;;0.00;0.00;;;;;;;;5041848;28;62565;-76
2022/12/23 05:50:40;;;;;;;;;0.00;0.00;;;;;;;;5042147;28;61784;-77
2022/12/23 05:53:06;;;;;;;;;0.75;0.75;;;;;;;;5043052;28;62210;-76
2022/12/23 05:55:31;;;;;;;;;0.00;0.00;;;;;;;;5041740;28;62146;-77
2022/12/23 05:57:57;;;;;;;;;2.00;1.00;;;;;;;;5043235;28;61910;-76
2022/12/23 06:00:22;;;;;;;;;0.00;0.00;;;;;;;;5042270;28;62890;-76
2022/12/23 06:02:47;;;;;;;;;0.00;0.00;;;;;;;;5042741;28;61784;-76
2022/12/23 06:05:13;;;;;;;;;0.00;0.00;;;;;;;;5042984;28;61811;-76
2022/12/23 06:07:38;;;;;;;;;1.00;0.00;;;;;;;;5043122;28;61873;-77
2022/12/23 06:10:04;;;;;;;;;0.00;0.00;;;;;;;;5041586;28;62369;-78
2022/12/23 06:12:30;;;;;;;;;0.00;0.00;;;;;;;;5043083;28;61877;-77
2022/12/23 06:14:55;;;;;;;;;1.00;0.00;;;;;;;;5041319;28;62038;-78
2022/12/23 06:17:20;;;;;;;;;0.00;0.00;;;;;;;;5040809;28;62128;-77
2022/12/23 06:19:49;;;;;;;;;1.00;0.00;;;;;;;;5041852;28;61837;-78
2022/12/23 06:22:14;;;;;;;;;0.00;0.00;;;;;;;;5042178;28;61746;-78
2022/12/23 06:24:39;;;;;;;;;0.00;0.00;;;;;;;;5042350;28;62407;-78
2022/12/23 06:27:05;;;;;;;;;0.00;0.00;;;;;;;;5042538;28;61894;-78
2022/12/23 06:29:30;;;;;;;;;0.00;0.00;;;;;;;;5041904;28;62728;-78
2022/12/23 06:31:55;;;;;;;;;0.00;0.00;;;;;;;;5042283;28;61960;-78
2022/12/23 06:34:20;;;;;;;;;0.00;0.00;;;;;;;;5042169;28;61785;-77
2022/12/23 06:36:46;;;;;;;;;0.25;0.00;;;;;;;;5036012;28;61905;-76
2022/12/23 06:39:11;;;;;;;;;0.33;0.00;;;;;;;;5029715;28;62045;-77
2022/12/23 06:41:36;;;;;;;;;1.50;0.00;;;;;;;;5032642;28;61903;-77
2022/12/23 06:44:02;;;;;;;;;0.00;0.00;;;;;;;;5037133;28;61881;-77
2022/12/23 06:46:28;;;;;;;;;0.00;0.00;;;;;;;;5041731;28;61732;-77
2022/12/23 06:48:53;;;;;;;;;0.00;0.00;;;;;;;;5039256;28;63784;-77
2022/12/23 06:51:18;;;;;;;;;0.50;0.00;;;;;;;;5041614;28;61712;-77
2022/12/23 06:53:43;;;;;;;;;0.00;0.00;;;;;;;;5041749;28;61919;-77
2022/12/23 06:56:09;;;;;;;;;0.00;0.00;;;;;;;;5042116;28;61856;-77
2022/12/23 06:58:34;;;;;;;;;0.50;0.50;;;;;;;;5045277;28;61911;-77
2022/12/23 07:00:59;;;;;;;;;1.75;0.00;;;;;;;;5045128;28;61683;-77
2022/12/23 07:03:24;;;;;;;;;0.00;0.00;;;;;;;;5045237;28;61635;-77
2022/12/23 07:05:50;;;;;;;;;0.00;0.00;;;;;;;;5045555;28;61760;-77
2022/12/23 07:08:16;;;;;;;;;0.00;0.00;;;;;;;;5044332;28;61983;-77
2022/12/23 07:10:42;;;;;;;;;1.00;0.00;;;;;;;;5039183;28;61978;-77
2022/12/23 07:13:07;;;;;;;;;0.00;0.00;;;;;;;;5025346;28;61880;-77
2022/12/23 07:15:32;;;;;;;;;0.00;0.00;;;;;;;;5025103;28;62017;-77
2022/12/23 07:17:57;;;;;;;;;0.00;0.00;;;;;;;;5024667;28;61793;-77
2022/12/23 07:20:23;;;;;;;;;0.00;0.00;;;;;;;;5024458;28;61659;-77
2022/12/23 07:22:49;;;;;;;;;0.00;0.00;;;;;;;;5023488;28;61787;-77
2022/12/23 07:25:14;;;;;;;;;1.00;0.00;;;;;;;;5030463;28;62105;-77
2022/12/23 07:27:41;;;;;;;;;0.00;0.00;;;;;;;;5033408;28;62856;-77
2022/12/23 07:30:07;;;;;;;;;0.00;0.00;;;;;;;;5033948;28;62134;-77
2022/12/23 07:32:32;;;;;;;;;0.00;0.00;;;;;;;;5044513;28;61719;-77
2022/12/23 07:34:57;;;;;;;;;2.00;0.00;;;;;;;;5045050;28;61702;-76
2022/12/23 07:37:22;;;;;;;;;0.00;0.00;;;;;;;;5043804;28;62433;-76
2022/12/23 07:39:48;;;;;;;;;0.00;0.00;;;;;;;;5045018;28;61904;-77
2022/12/23 07:42:13;;;;;;;;;0.00;0.00;;;;;;;;5043250;28;62085;-78
2022/12/23 07:44:38;;;;;;;;;1.00;0.00;;;;;;;;5045016;28;61959;-78
2022/12/23 07:47:03;;;;;;;;;1.00;0.00;;;;;;;;5043790;28;63145;-78
2022/12/23 07:49:29;;;;;;;;;0.00;0.00;;;;;;;;5044029;28;61777;-79
2022/12/23 07:51:54;;;;;;;;;1.00;0.00;;;;;;;;5044693;28;61867;-78
2022/12/23 07:54:19;;;;;;;;;0.00;0.00;;;;;;;;5042999;28;62014;-78
2022/12/23 07:56:44;;;;;;;;;1.00;0.00;;;;;;;;5043957;28;61874;-79
2022/12/23 07:59:10;;;;;;;;;1.00;0.00;;;;;;;;5044789;28;61896;-79
2022/12/23 08:01:35;;;;;;;;;0.00;0.00;;;;;;;;5044266;28;62118;-78
2022/12/23 08:04:00;;;;;;;;;0.00;0.00;;;;;;;;5044841;28;61894;-78
2022/12/23 08:06:25;;;;;;;;;0.00;0.00;;;;;;;;5042172;28;63493;-78
2022/12/23 08:08:51;;;;;;;;;1.00;0.00;;;;;;;;5041549;28;61900;-78
2022/12/23 08:11:16;;;;;;;;;0.00;0.00;;;;;;;;5044706;28;61744;-78
2022/12/23 08:13:42;;;;;;;;;0.00;0.00;;;;;;;;5044225;28;61769;-78
2022/12/23 08:16:08;;;;;;;;;0.00;0.00;;;;;;;;5041905;28;63595;-78
2022/12/23 08:18:34;;;;;;;;;0.00;0.00;;;;;;;;5035950;28;62011;-78
2022/12/23 08:21:01;;;;;;;;;0.00;0.00;;;;;;;;5030760;28;61829;-78
2022/12/23 08:23:27;;;;;;;;;0.00;0.00;;;;;;;;5043346;28;61939;-78
2022/12/23 08:26:00;;;;;;;;;1.00;0.00;;;;;;;;5043633;28;62847;-78
2022/12/23 08:28:25;;;;;;;;;0.00;0.00;;;;;;;;5043906;28;61836;-78
2022/12/23 08:30:50;;;;;;;;;0.00;0.00;;;;;;;;5043471;28;61842;-78
2022/12/23 08:33:16;;;;;;;;;0.00;0.00;;;;;;;;5044282;28;61893;-78
2022/12/23 08:35:41;;;;;;;;;0.00;0.00;;;;;;;;5041844;28;63651;-78
2022/12/23 08:38:06;;;;;;;;;0.00;0.00;;;;;;;;5043934;28;61920;-78
2022/12/23 08:40:31;;;;;;;;;0.00;0.00;;;;;;;;5042513;28;61975;-78
2022/12/23 08:42:57;;;;;;;;;1.00;1.00;;;;;;;;5043876;28;61840;-78
2022/12/23 08:45:22;;;;;;;;;0.00;0.00;;;;;;;;5043229;28;62486;-76
2022/12/23 08:47:48;;;;;;;;;0.00;0.00;;;;;;;;5043751;28;62293;-76
2022/12/23 08:50:13;;;;;;;;;1.00;0.00;;;;;;;;5042080;28;62115;-77
2022/12/23 08:52:38;;;;;;;;;0.00;0.00;;;;;;;;5043891;28;61864;-77
2022/12/23 08:55:04;;;;;;;;;0.75;0.00;;;;;;;;5043029;28;62680;-77
2022/12/23 08:57:29;;;;;;;;;0.00;0.00;;;;;;;;5043591;28;61807;-77
2022/12/23 08:59:54;;;;;;;;;0.00;0.00;;;;;;;;5043569;28;61706;-77
2022/12/23 09:02:19;;;;;;;;;0.00;0.00;;;;;;;;5042433;28;61763;-77
2022/12/23 09:04:45;;;;;;;;;0.00;0.00;;;;;;;;5041237;28;64869;-77
2022/12/23 09:07:10;;;;;;;;;0.00;0.00;;;;;;;;5043714;28;61923;-77
2022/12/23 09:09:36;;;;;;;;;0.00;0.00;;;;;;;;5043039;28;61781;-77
2022/12/23 09:12:01;;;;;;;;;0.00;0.00;;;;;;;;5043781;28;61813;-77
2022/12/23 09:14:26;;;;;;;;;0.00;0.00;;;;;;;;5041554;28;63543;-77
2022/12/23 09:16:52;;;;;;;;;0.00;0.00;;;;;;;;5041267;28;61910;-77
2022/12/23 09:19:17;;;;;;;;;0.00;0.00;;;;;;;;5042539;28;62087;-77
2022/12/23 09:21:42;;;;;;;;;0.00;0.00;;;;;;;;5043315;28;61825;-77
2022/12/23 09:24:08;;;;;;;;;1.00;0.00;;;;;;;;5042412;28;62836;-78
2022/12/23 09:26:33;;;;;;;;;0.00;0.00;;;;;;;;5043326;28;61853;-77
2022/12/23 09:28:58;;;;;;;;;1.00;0.00;;;;;;;;5042747;28;62397;-77
2022/12/23 09:31:24;;;;;;;;;0.00;0.00;;;;;;;;5041847;28;61966;-77
2022/12/23 09:33:50;;;;;;;;;0.00;0.00;;;;;;;;5040293;28;63695;-78
2022/12/23 09:36:16;;;;;;;;;0.00;0.00;;;;;;;;5041752;28;61922;-78
2022/12/23 09:38:41;;;;;;;;;0.00;0.00;;;;;;;;5042894;28;61865;-77
2022/12/23 09:41:21;;;;;;;;;0.00;0.00;;;;;;;;5043150;28;62043;-77
2022/12/23 09:43:59;;;;;;;;;0.00;0.00;;;;;;;;5042215;28;61734;-78
2022/12/23 09:46:27;;;;;;;;;0.00;0.00;;;;;;;;5041302;28;61856;-76
2022/12/23 09:49:04;;;;;;;;;0.00;0.00;;;;;;;;5035504;28;61806;-77
2022/12/23 09:51:30;;;;;;;;;0.00;0.00;;;;;;;;5027283;28;61884;-76
2022/12/23 09:53:55;;;;;;;;;2.00;1.00;;;;;;;;5030260;28;61759;-76
2022/12/23 09:56:36;;;;;;;;;0.75;0.50;;;;;;;;5028893;28;61699;-76
2022/12/23 09:59:11;;;;;;;;;0.00;0.00;;;;;;;;5021418;28;62027;-76
2022/12/23 10:01:41;;;;;;;;;1.00;1.00;;;;;;;;5022557;28;61728;-76
2022/12/23 10:04:27;;;;;;;;;1.00;0.00;;;;;;;;5020678;28;63932;-78
2022/12/23 10:07:01;;;;;;;;;0.25;0.00;;;;;;;;5033303;28;62291;-77
2022/12/23 10:09:27;;;;;;;;;1.25;0.00;;;;;;;;5041919;28;61688;-77
2022/12/23 10:11:53;;;;;;;;;0.00;0.00;;;;;;;;5042479;28;61676;-78
2022/12/23 10:14:23;;;;;;;;;0.00;0.00;;;;;;;;5039749;28;64832;-77
2022/12/23 10:16:56;;;;;;;;;0.00;0.00;;;;;;;;5040103;28;61910;-77
2022/12/23 10:19:31;;;;;;;;;0.00;0.00;;;;;;;;5038848;28;62008;-77
2022/12/23 10:22:01;;;;;;;;;0.00;0.00;;;;;;;;5039675;28;61750;-78
2022/12/23 10:24:32;;;;;;;;;0.67;0.00;;;;;;;;5039672;28;63835;-77
2022/12/23 10:27:11;;;;;;;;;0.00;0.00;;;;;;;;5041944;28;61814;-77
2022/12/23 10:29:37;;;;;;;;;0.00;0.00;;;;;;;;5041768;28;61948;-78
2022/12/23 10:32:21;;;;;;;;;0.67;0.00;;;;;;;;5039783;28;62420;-78
2022/12/23 10:35:04;;;;;;;;;0.00;0.00;;;;;;;;5039890;28;65037;-78
2022/12/23 10:37:33;;;;;;;;;0.00;0.00;;;;;;;;5040032;28;62172;-78
2022/12/23 10:40:24;;;;;;;;;0.00;0.00;;;;;;;;5041566;28;61766;-78
2022/12/23 10:43:03;;;;;;;;;0.00;0.00;;;;;;;;5042126;28;61802;-77
2022/12/23 10:45:43;;;;;;;;;0.50;0.00;;;;;;;;5040950;28;61809;-76
2022/12/23 10:48:21;;;;;;;;;0.00;0.00;;;;;;;;5041806;28;61948;-77
2022/12/23 10:50:47;;;;;;;;;0.00;0.00;;;;;;;;5041469;28;61671;-78
2022/12/23 10:53:16;;;;;;;;;0.00;0.00;;;;;;;;5035556;28;61683;-78
2022/12/23 10:55:42;;;;;;;;;0.50;0.00;;;;;;;;5033761;28;61864;-77
2022/12/23 10:58:13;;;;;;;;;1.00;0.00;;;;;;;;5036097;28;61710;-77
2022/12/23 11:00:40;;;;;;;;;0.00;0.00;;;;;;;;5034407;28;61898;-80
2022/12/23 11:03:15;;;;;;;;;2.75;1.00;;;;;;;;5031297;28;61915;-80
2022/12/23 11:05:42;;;;;;;;;0.00;0.00;;;;;;;;5030772;28;62104;-78
2022/12/23 11:08:07;;;;;;;;;0.00;0.00;;;;;;;;5039514;28;61824;-77
2022/12/23 11:10:33;;;;;;;;;0.00;0.00;;;;;;;;5032988;28;62090;-77
2022/12/23 11:12:59;;;;;;;;;0.00;0.00;;;;;;;;5028988;28;61859;-78
2022/12/23 11:15:26;;;;;;;;;0.00;0.00;;;;;;;;5031285;28;62616;-78
2022/12/23 11:18:10;;;;;;;;;0.00;0.00;;;;;;;;5029955;28;62028;-77
2022/12/23 11:20:35;;;;;;;;;0.00;0.00;;;;;;;;5039347;28;62266;-77
2022/12/23 11:23:02;;;;;;;;;0.00;0.00;;;;;;;;5037753;28;61972;-78
2022/12/23 11:25:37;;;;;;;;;0.67;0.00;;;;;;;;5041030;28;62063;-77
2022/12/23 11:28:05;;;;;;;;;0.00;0.00;;;;;;;;5040337;28;61724;-78
2022/12/23 11:30:31;;;;;;;;;0.00;0.00;;;;;;;;5041838;28;61857;-79
2022/12/23 11:32:57;;;;;;;;;0.00;0.00;;;;;;;;5042087;28;61767;-80
2022/12/23 11:35:24;;;;;;;;;0.00;0.00;;;;;;;;5037966;28;63629;-77
2022/12/23 11:37:50;;;;;;;;;0.00;0.00;;;;;;;;5039898;28;61927;-77
2022/12/23 11:40:27;;;;;;;;;0.00;0.00;;;;;;;;5041321;28;61652;-77
2022/12/23 11:42:59;;;;;;;;;0.00;0.00;;;;;;;;5042428;28;61727;-79
2022/12/23 11:45:26;;;;;;;;;0.00;0.00;;;;;;;;5044125;28;62045;-79
2022/12/23 11:47:51;;;;;;;;;0.00;0.00;;;;;;;;5044901;28;61932;-79
2022/12/23 11:50:30;;;;;;;;;0.00;0.00;;;;;;;;5044029;28;61762;-79
2022/12/23 11:53:19;;;;;;;;;0.00;0.00;;;;;;;;5043573;28;62123;-79
2022/12/23 11:56:03;;;;;;;;;0.00;0.00;;;;;;;;5043630;28;62780;-78
2022/12/23 11:58:30;;;;;;;;;0.00;0.00;;;;;;;;5044513;28;61825;-80
2022/12/23 12:01:00;;;;;;;;;0.00;0.00;;;;;;;;5044494;28;61959;-79
2022/12/23 12:03:27;;;;;;;;;0.00;0.00;;;;;;;;5044683;28;62078;-80
2022/12/23 12:06:01;;;;;;;;;0.00;0.00;;;;;;;;5043930;28;61790;-79
2022/12/23 12:08:36;;;;;;;;;0.00;0.00;;;;;;;;5044247;28;61857;-78
2022/12/23 12:11:06;;;;;;;;;0.00;0.00;;;;;;;;5055389;28;62010;-77
2022/12/23 12:13:37;;;;;;;;;0.00;0.00;;;;;;;;5042476;28;61834;-78
2022/12/23 12:16:02;;;;;;;;;0.00;0.00;;;;;;;;5043742;28;61924;-79
2022/12/23 12:18:28;;;;;;;;;0.00;0.00;;;;;;;;5044122;28;61771;-79
2022/12/23 12:20:57;;;;;;;;;0.00;0.00;;;;;;;;5043882;28;61833;-77
2022/12/23 12:23:39;;;;;;;;;0.00;0.00;;;;;;;;5032569;28;61835;-77
2022/12/23 12:26:13;;;;;;;;;0.00;0.00;;;;;;;;5040572;28;63830;-77
2022/12/23 12:28:46;;;;;;;;;3.00;0.00;;;;;;;;5042873;28;61962;-76
2022/12/23 12:31:30;;;;;;;;;0.67;0.00;;;;;;;;5043799;28;61825;-77
2022/12/23 12:33:55;;;;;;;;;0.00;0.00;;;;;;;;5042528;28;62237;-77
2022/12/23 12:36:29;;;;;;;;;0.00;0.00;;;;;;;;5042062;28;63617;-76
2022/12/23 12:38:57;;;;;;;;;1.00;0.00;;;;;;;;5044058;28;61807;-77
2022/12/23 12:41:45;;;;;;;;;1.00;0.00;;;;;;;;5043735;28;61722;-76
2022/12/23 12:44:19;;;;;;;;;0.00;0.00;;;;;;;;5044126;28;61585;-76
2022/12/23 12:47:20;;;;;;;;;0.00;0.00;;;;;;;;5043248;28;62890;-77
2022/12/23 12:50:11;;;;;;;;;0.00;0.00;;;;;;;;5001300;28;61845;-77
2022/12/23 12:52:38;;;;;;;;;0.00;0.00;;;;;;;;5001588;28;62063;-77
2022/12/23 12:55:12;;;;;;;;;1.33;0.00;;;;;;;;4984359;28;61931;-76
2022/12/23 12:57:38;;;;;;;;;0.00;0.00;;;;;;;;5000891;28;62400;-76
2022/12/23 13:00:07;;;;;;;;;2.00;1.00;;;;;;;;5001694;28;61841;-77
2022/12/23 13:02:51;;;;;;;;;0.00;0.00;;;;;;;;5001428;28;61821;-76
2022/12/23 13:05:35;;;;;;;;;0.00;0.00;;;;;;;;4984956;28;62245;-76
2022/12/23 13:08:00;;;;;;;;;0.00;0.00;;;;;;;;5000907;28;62852;-76
2022/12/23 13:10:35;;;;;;;;;0.67;0.00;;;;;;;;5000763;28;61926;-76
2022/12/23 13:13:19;;;;;;;;;0.00;0.00;;;;;;;;5001539;28;61931;-76
2022/12/23 13:15:50;;;;;;;;;1.00;1.00;;;;;;;;4984914;28;61856;-76
2022/12/23 13:18:25;;;;;;;;;0.00;0.00;;;;;;;;5000439;28;61781;-76
2022/12/23 13:20:58;;;;;;;;;0.00;0.00;;;;;;;;5000951;28;61959;-77
2022/12/23 13:23:29;;;;;;;;;0.67;0.00;;;;;;;;4995168;28;61845;-77
2022/12/23 13:26:04;;;;;;;;;1.00;0.00;;;;;;;;5023699;28;62560;-76
2022/12/23 13:28:52;;;;;;;;;0.00;0.00;;;;;;;;5022754;28;61857;-77
2022/12/23 13:31:27;;;;;;;;;3.00;1.00;;;;;;;;5020015;28;61845;-76
2022/12/23 13:33:52;;;;;;;;;0.33;0.33;;;;;;;;5021757;28;61908;-76
2022/12/23 13:36:56;;;;;;;;;2.00;0.00;;;;;;;;5021584;28;62193;-76
2022/12/23 13:39:31;;;;;;;;;2.33;0.00;;;;;;;;5000098;28;62891;-76
2022/12/23 13:41:59;;;;;;;;;2.00;0.00;;;;;;;;5001046;28;61958;-76
2022/12/23 13:44:24;;;;;;;;;0.00;0.00;;;;;;;;5000677;28;61952;-77
2022/12/23 13:46:56;;;;;;;;;0.00;0.00;;;;;;;;5000924;28;62028;-76
2022/12/23 13:49:32;;;;;;;;;0.33;0.00;;;;;;;;4999831;28;63945;-76
2022/12/23 13:52:11;;;;;;;;;1.67;0.00;;;;;;;;5000804;28;62251;-76
2022/12/23 13:54:49;;;;;;;;;0.00;0.00;;;;;;;;4999921;28;61826;-77
2022/12/23 13:57:14;;;;;;;;;0.33;0.00;;;;;;;;5001056;28;61773;-76
2022/12/23 13:59:43;;;;;;;;;0.00;0.00;;;;;;;;5012605;28;62880;-77
2022/12/23 14:02:28;;;;;;;;;0.00;0.00;;;;;;;;5003351;28;62042;-76
2022/12/23 14:04:54;;;;;;;;;1.00;1.00;;;;;;;;5007399;28;63168;-77
2022/12/23 14:07:20;;;;;;;;;1.00;0.00;;;;;;;;5001500;28;62061;-78
2022/12/23 14:09:53;;;;;;;;;0.00;0.00;;;;;;;;5011280;28;63793;-81
2022/12/23 14:12:29;;;;;;;;;1.00;1.00;;;;;;;;5040131;28;61911;-76
2022/12/23 14:15:11;;;;;;;;;1.00;1.00;;;;;;;;5041527;28;61804;-77
2022/12/23 14:17:56;;;;;;;;;0.67;0.00;;;;;;;;5039107;28;61865;-77
2022/12/23 14:20:50;;;;;;;;;0.00;0.00;;;;;;;;5038308;28;63004;-76
2022/12/23 14:23:18;;;;;;;;;0.00;0.00;;;;;;;;4985095;28;62161;-77
2022/12/23 14:25:51;;;;;;;;;1.00;0.00;;;;;;;;4996400;28;61809;-77
2022/12/23 14:28:16;;;;;;;;;0.33;0.00;;;;;;;;4995408;28;61969;-77
2022/12/23 14:30:45;;;;;;;;;0.00;0.00;;;;;;;;4988656;28;61873;-77
2022/12/23 14:33:14;;;;;;;;;0.00;0.00;;;;;;;;4982614;28;62009;-77
2022/12/23 14:35:40;;;;;;;;;0.00;0.00;;;;;;;;4979001;28;62239;-77
2022/12/23 14:38:08;;;;;;;;;1.00;1.00;;;;;;;;4980183;28;61966;-77
2022/12/23 14:40:36;;;;;;;;;1.00;1.00;;;;;;;;4979863;28;64539;-77
2022/12/23 14:43:20;;;;;;;;;0.67;0.00;;;;;;;;4980293;28;61916;-77
2022/12/23 14:45:45;;;;;;;;;1.00;1.00;;;;;;;;4979965;28;61999;-76
2022/12/23 14:48:29;;;;;;;;;0.00;0.00;;;;;;;;4980526;28;61992;-77
2022/12/23 14:51:00;;;;;;;;;1.00;0.00;;;;;;;;4979127;28;62271;-77
2022/12/23 14:53:26;;;;;;;;;2.00;0.00;;;;;;;;4976605;28;61867;-77
2022/12/23 14:56:06;;;;;;;;;0.67;0.67;;;;;;;;4999754;28;61857;-77
2022/12/23 14:58:52;;;;;;;;;0.00;0.00;;;;;;;;4998769;28;62182;-76
2022/12/23 15:01:21;;;;;;;;;1.00;0.00;;;;;;;;5023442;28;61816;-77
2022/12/23 15:03:48;;;;;;;;;0.00;0.00;;;;;;;;5019355;28;62009;-76
2022/12/23 15:06:19;;;;;;;;;0.33;0.33;;;;;;;;5019067;28;61987;-77
2022/12/23 15:08:45;;;;;;;;;2.00;0.00;;;;;;;;5024666;28;61980;-77
2022/12/23 15:11:20;;;;;;;;;1.33;0.00;;;;;;;;5038688;28;61721;-77
2022/12/23 15:13:46;;;;;;;;;1.00;0.00;;;;;;;;5036097;28;62083;-78
2022/12/23 15:16:15;;;;;;;;;1.00;1.00;;;;;;;;5038042;28;62271;-77
2022/12/23 15:18:56;;;;;;;;;1.00;0.00;;;;;;;;5022395;28;62457;-77
2022/12/23 15:21:28;;;;;;;;;0.00;0.00;;;;;;;;5022233;28;61834;-77
2022/12/23 15:23:54;;;;;;;;;0.00;0.00;;;;;;;;5035195;28;61972;-76
2022/12/23 15:26:20;;;;;;;;;0.00;0.00;;;;;;;;5025073;28;61866;-76